Time;durP1;ratioP1;P1;durP2;ratioP2;P2;SDS_P1;SDS_P2;PMS_P1;PMS_P2;Temp;Humidity;BMP_temperature;BMP_pressure;BME280_temperature;BME280_humidity;BME280_pressure;Samples;Min_cycle;Max_cycle;Signal;HPM_P1;HPM_P2
2023/03/22 00:01:23;;;;;;;127.10;62.20;;;;;;;6.27;100.00;98993.28;270070;1271;22500;-84
2023/03/22 00:07:25;;;;;;;114.10;58.80;;;;;;;6.16;100.00;98988.28;272918;1272;22399;-84
2023/03/22 00:13:45;;;;;;;127.20;64.90;;;;;;;6.09;100.00;98982.66;271736;1264;23239;-84
2023/03/22 00:19:48;;;;;;;112.40;58.90;;;;;;;5.97;100.00;98981.46;272829;1271;22191;-84
2023/03/22 00:25:51;;;;;;;119.70;59.10;;;;;;;5.87;100.00;98982.55;273490;1277;22918;-84
2023/03/22 00:31:54;;;;;;;118.30;57.30;;;;;;;5.77;100.00;98979.60;271145;1271;22558;-84
2023/03/22 00:38:04;;;;;;;140.50;61.60;;;;;;;5.70;100.00;98975.20;270199;1257;22278;-83
2023/03/22 00:44:25;;;;;;;259.70;62.50;;;;;;;5.61;100.00;98967.24;271557;1271;22210;-83
2023/03/22 00:50:27;;;;;;;195.40;58.20;;;;;;;5.55;100.00;98964.71;272904;1258;22452;-84
2023/03/22 00:56:29;;;;;;;348.70;61.40;;;;;;;5.41;100.00;98959.96;272921;1258;22399;-83
2023/03/22 01:02:58;;;;;;;322.00;66.10;;;;;;;5.32;100.00;98949.20;272920;1258;22394;-84
2023/03/22 01:09:00;;;;;;;133.60;60.80;;;;;;;5.33;100.00;98945.06;272841;1272;22443;-84
2023/03/22 01:15:04;;;;;;;295.10;58.40;;;;;;;5.38;100.00;98941.34;272959;1271;23090;-84
2023/03/22 01:21:06;;;;;;;259.10;63.00;;;;;;;5.37;100.00;98928.96;271441;1270;22559;-83
2023/03/22 01:27:09;;;;;;;117.60;54.10;;;;;;;5.34;100.00;98934.00;271180;1264;22764;-83
2023/03/22 01:33:10;;;;;;;237.70;59.30;;;;;;;5.30;100.00;98923.70;270006;1261;22556;-84
2023/03/22 01:39:13;;;;;;;171.20;55.20;;;;;;;5.20;100.00;98914.88;270951;1265;22700;-83
2023/03/22 01:45:34;;;;;;;129.50;47.50;;;;;;;5.04;100.00;98912.50;271020;1271;22682;-83
2023/03/22 01:51:37;;;;;;;159.40;52.40;;;;;;;4.90;100.00;98898.81;272808;1268;22159;-83
2023/03/22 01:57:53;;;;;;;179.30;53.50;;;;;;;4.88;100.00;98891.54;271798;1271;22418;-84
2023/03/22 02:04:18;;;;;;;107.40;37.10;;;;;;;4.79;100.00;98880.94;269914;1271;22494;-83
2023/03/22 02:10:23;;;;;;;135.40;44.60;;;;;;;4.60;100.00;98874.60;269456;1271;22541;-82
2023/03/22 02:16:42;;;;;;;120.60;43.70;;;;;;;4.43;100.00;98875.66;269689;1271;24374;-83
2023/03/22 02:23:15;;;;;;;135.00;47.10;;;;;;;4.27;100.00;98871.80;269621;1271;22600;-84
2023/03/22 02:29:37;;;;;;;92.60;45.10;;;;;;;4.24;100.00;98869.85;269430;1271;22257;-83
2023/03/22 02:35:51;;;;;;;100.60;45.70;;;;;;;4.29;100.00;98861.81;272117;1271;23462;-84
2023/03/22 02:42:11;;;;;;;109.00;44.00;;;;;;;4.22;100.00;98855.76;269386;1261;22615;-84
2023/03/22 02:48:17;;;;;;;155.20;48.00;;;;;;;4.08;100.00;98855.36;269106;1271;22551;-83
2023/03/22 02:54:25;;;;;;;128.00;46.90;;;;;;;4.03;100.00;98851.16;270026;1271;22435;-84
2023/03/22 03:00:27;;;;;;;134.40;45.50;;;;;;;3.96;100.00;98847.05;272755;1271;22435;-84
2023/03/22 03:06:44;;;;;;;149.50;52.40;;;;;;;3.83;100.00;98845.04;272786;1263;22343;-84
2023/03/22 03:12:46;;;;;;;121.40;49.20;;;;;;;3.73;100.00;98851.42;272934;1259;23588;-83
2023/03/22 03:19:07;;;;;;;121.70;47.70;;;;;;;3.62;100.00;98858.09;272551;1272;22409;-83
2023/03/22 03:25:20;;;;;;;129.10;51.80;;;;;;;3.59;100.00;98859.64;271332;1272;22613;-84
2023/03/22 03:31:34;;;;;;;157.50;53.00;;;;;;;3.48;100.00;98859.71;271649;1271;22345;-84
2023/03/22 03:37:48;;;;;;;207.80;57.90;;;;;;;3.35;100.00;98865.14;271228;1272;24197;-82
2023/03/22 03:43:52;;;;;;;167.50;54.10;;;;;;;3.24;100.00;98859.84;269618;1271;23371;-81
2023/03/22 03:49:53;;;;;;;142.40;50.70;;;;;;;3.16;100.00;98862.19;269478;1271;24094;-82
2023/03/22 03:55:55;;;;;;;123.90;45.00;;;;;;;3.12;100.00;98864.67;269689;1271;22392;-83
2023/03/22 04:01:57;;;;;;;136.60;45.20;;;;;;;3.18;100.00;98873.54;272219;1271;22552;-83
2023/03/22 04:08:01;;;;;;;95.70;41.70;;;;;;;3.26;100.00;98869.02;270139;1271;25324;-82
2023/03/22 04:14:03;;;;;;;110.00;43.00;;;;;;;3.28;100.00;98868.86;271502;1264;22312;-83
2023/03/22 04:20:08;;;;;;;142.90;41.40;;;;;;;3.31;100.00;98870.05;271268;1271;22385;-83
2023/03/22 04:26:10;;;;;;;85.40;38.40;;;;;;;3.35;100.00;98878.09;269062;1271;23290;-83
2023/03/22 04:32:36;;;;;;;132.20;37.80;;;;;;;3.37;100.00;98884.75;270690;1271;23201;-82
2023/03/22 04:38:38;;;;;;;121.40;36.50;;;;;;;3.36;100.00;98887.60;271719;1263;22570;-84
2023/03/22 04:44:41;;;;;;;118.90;41.30;;;;;;;3.33;100.00;98892.02;270129;1271;143157;-83
2023/03/22 04:50:44;;;;;;;118.20;43.20;;;;;;;3.32;100.00;98897.08;270351;1271;22553;-84
2023/03/22 04:56:47;;;;;;;126.60;46.70;;;;;;;3.34;100.00;98898.73;269287;1263;22559;-83
2023/03/22 05:02:49;;;;;;;99.00;45.10;;;;;;;3.32;100.00;98900.96;269645;1259;22537;-83
2023/03/22 05:09:00;;;;;;;106.20;44.20;;;;;;;3.34;100.00;98906.12;269127;1271;23919;-83
2023/03/22 05:15:17;;;;;;;129.10;43.40;;;;;;;3.36;100.00;98905.59;269608;1264;23036;-83
2023/03/22 05:21:27;;;;;;;96.50;39.80;;;;;;;3.43;100.00;98906.77;271723;1271;23781;-84
2023/03/22 05:27:33;;;;;;;112.00;41.70;;;;;;;3.49;100.00;98907.39;272422;1272;22792;-83
2023/03/22 05:34:34;;;;;;;112.40;42.10;;;;;;;3.54;100.00;98898.98;269386;1271;23720;-83
2023/03/22 05:40:45;;;;;;;106.50;41.70;;;;;;;3.50;100.00;98898.45;269501;1271;22596;-83
2023/03/22 05:46:47;;;;;;;96.50;39.70;;;;;;;3.48;100.00;98899.55;272611;1273;22969;-83
2023/03/22 05:53:07;;;;;;;89.20;39.70;;;;;;;3.50;100.00;98897.07;272812;1271;22263;-83
2023/03/22 05:59:26;;;;;;;78.00;42.00;;;;;;;3.59;100.00;98891.61;271921;1271;22553;-84
2023/03/22 06:05:35;;;;;;;75.10;39.80;;;;;;;3.67;100.00;98890.34;270479;1262;22173;-84
2023/03/22 06:11:44;;;;;;;78.30;41.30;;;;;;;3.86;100.00;98901.63;272523;1274;22165;-84
2023/03/22 06:17:53;;;;;;;73.30;39.70;;;;;;;4.14;100.00;98908.27;272625;1272;23201;-84
2023/03/22 06:24:00;;;;;;;71.30;38.60;;;;;;;4.35;100.00;98910.49;271023;1264;22543;-84
2023/03/22 06:30:02;;;;;;;68.60;37.30;;;;;;;4.53;100.00;98909.02;269259;1272;22533;-84
2023/03/22 06:36:06;;;;;;;64.70;35.20;;;;;;;4.64;100.00;98908.52;270136;1271;22555;-84
2023/03/22 06:42:15;;;;;;;60.80;35.80;;;;;;;4.76;100.00;98904.28;270039;1261;22607;-84
2023/03/22 06:48:17;;;;;;;63.50;35.20;;;;;;;4.90;100.00;98898.19;269931;1271;23630;-84
2023/03/22 06:54:40;;;;;;;69.40;39.00;;;;;;;4.94;100.00;98893.20;269763;1271;23162;-82
2023/03/22 07:00:41;;;;;;;66.90;37.30;;;;;;;5.03;100.00;98895.89;270039;1272;22843;-84
2023/03/22 07:06:43;;;;;;;73.80;43.30;;;;;;;5.17;100.00;98898.65;272074;1260;22547;-86
2023/03/22 07:12:45;;;;;;;71.10;40.10;;;;;;;5.51;100.00;98899.38;271749;1264;22665;-84
2023/03/22 07:18:49;;;;;;;64.60;38.70;;;;;;;5.91;100.00;98896.45;269924;1272;22530;-82
2023/03/22 07:24:51;;;;;;;145.00;97.40;;;;;;;6.16;100.00;98903.34;269668;1272;22115;-82
2023/03/22 07:31:01;;;;;;;70.70;43.30;;;;;;;6.37;100.00;98900.24;269289;1272;22565;-84
2023/03/22 07:37:07;;;;;;;58.80;36.30;;;;;;;6.59;100.00;98895.83;269464;1272;22536;-84
2023/03/22 07:43:11;;;;;;;65.60;33.60;;;;;;;6.81;100.00;98898.08;271360;1272;22403;-84
2023/03/22 07:49:50;;;;;;;49.60;30.10;;;;;;;7.43;100.00;98899.82;270327;1271;22266;-83
2023/03/22 07:56:04;;;;;;;44.40;28.00;;;;;;;8.25;100.00;98892.23;271246;1271;22215;-84
2023/03/22 08:02:09;;;;;;;43.60;27.10;;;;;;;8.72;100.00;98881.86;272720;1272;22388;-86
2023/03/22 08:08:36;;;;;;;45.10;29.10;;;;;;;8.98;100.00;98879.73;272704;1272;22823;-85
2023/03/22 08:14:38;;;;;;;44.80;28.20;;;;;;;9.35;100.00;98881.98;273052;1261;22323;-85
2023/03/22 08:20:55;;;;;;;40.30;24.60;;;;;;;9.63;100.00;98880.40;272906;1264;22194;-85
2023/03/22 08:26:57;;;;;;;37.60;24.50;;;;;;;10.10;100.00;98877.94;271788;1272;22648;-85
2023/03/22 08:33:28;;;;;;;38.00;25.00;;;;;;;10.41;100.00;98877.11;271440;1271;22531;-83
2023/03/22 08:39:30;;;;;;;41.20;27.00;;;;;;;10.55;100.00;98873.48;271989;1269;23745;-84
2023/03/22 08:45:54;;;;;;;37.60;25.90;;;;;;;10.76;100.00;98872.04;272725;1272;23170;-85
2023/03/22 08:51:56;;;;;;;37.70;26.00;;;;;;;10.93;100.00;98876.47;272756;1273;22796;-84
2023/03/22 08:58:22;;;;;;;42.00;26.10;;;;;;;11.19;100.00;98873.68;270861;1271;22771;-84
2023/03/22 09:04:44;;;;;;;35.70;24.40;;;;;;;11.61;100.00;98867.44;270104;1272;22631;-84
2023/03/22 09:10:54;;;;;;;38.90;23.90;;;;;;;11.93;100.00;98858.12;270609;1271;24206;-84
2023/03/22 09:16:56;;;;;;;33.30;22.00;;;;;;;11.88;100.00;98853.55;270628;1271;22408;-85
2023/03/22 09:22:59;;;;;;;30.70;21.50;;;;;;;11.92;100.00;98854.05;271774;1271;22220;-85
2023/03/22 09:29:05;;;;;;;30.70;21.30;;;;;;;12.06;100.00;98846.39;270049;1275;22556;-84
2023/03/22 09:35:08;;;;;;;31.20;20.40;;;;;;;12.24;100.00;98841.58;269584;1258;22543;-84
2023/03/22 09:41:52;;;;;;;24.40;17.20;;;;;;;12.71;100.00;98837.23;271990;1272;22417;-84
2023/03/22 09:47:57;;;;;;;21.20;15.70;;;;;;;13.84;100.00;98825.12;271765;1272;22513;-85
2023/03/22 09:54:18;;;;;;;20.40;14.00;;;;;;;14.58;100.00;98822.98;272298;1273;22432;-83
2023/03/22 10:00:39;;;;;;;20.10;12.60;;;;;;;14.80;100.00;98819.27;272803;1272;22271;-84
2023/03/22 10:07:00;;;;;;;17.70;13.00;;;;;;;14.82;100.00;98813.58;272286;1271;23081;-84
2023/03/22 10:14:10;;;;;;;17.50;12.50;;;;;;;14.92;99.73;98813.41;270862;1271;23902;-84
2023/03/22 10:20:38;;;;;;;15.30;11.60;;;;;;;14.98;98.98;98803.35;270998;1275;22566;-85
2023/03/22 10:26:51;;;;;;;12.90;8.80;;;;;;;14.98;97.82;98799.65;270624;1273;27047;-84
2023/03/22 10:33:39;;;;;;;12.30;8.70;;;;;;;14.99;96.33;98793.73;272050;1272;22313;-85
2023/03/22 10:39:45;;;;;;;13.00;9.10;;;;;;;14.99;95.55;98785.54;270405;1272;23192;-84
2023/03/22 10:45:47;;;;;;;12.50;9.40;;;;;;;15.10;95.66;98780.94;270044;1270;26552;-85
2023/03/22 10:51:51;;;;;;;13.40;8.90;;;;;;;15.52;93.94;98780.08;270398;1272;22553;-85
2023/03/22 10:58:19;;;;;;;14.60;9.30;;;;;;;15.87;92.56;98774.36;270532;1272;22560;-85
2023/03/22 11:04:21;;;;;;;19.10;9.90;;;;;;;16.05;90.90;98769.70;270901;1273;22547;-86
2023/03/22 11:11:07;;;;;;;11.00;7.80;;;;;;;16.21;88.83;98768.44;270427;1272;25249;-85
2023/03/22 11:17:32;;;;;;;9.60;6.80;;;;;;;16.33;87.22;98757.84;269776;1265;22432;-85
2023/03/22 11:23:37;;;;;;;12.80;7.30;;;;;;;16.37;85.71;98748.77;269604;1271;22550;-85
2023/03/22 11:29:44;;;;;;;9.50;6.90;;;;;;;16.27;85.57;98748.46;270268;1272;22545;-85
2023/03/22 11:35:57;;;;;;;11.00;7.00;;;;;;;16.34;84.20;98743.69;269225;1273;22575;-85
2023/03/22 11:42:43;;;;;;;10.80;6.20;;;;;;;16.55;83.19;98741.80;271307;1271;22400;-85
2023/03/22 11:48:45;;;;;;;9.90;6.60;;;;;;;16.80;81.58;98736.06;269973;1274;22576;-83
2023/03/22 11:55:32;;;;;;;12.10;7.10;;;;;;;16.98;81.29;98728.95;269972;1271;23449;-84
2023/03/22 12:02:06;;;;;;;12.60;8.70;;;;;;;17.27;80.70;98725.62;272864;1271;22414;-85
2023/03/22 12:08:59;;;;;;;14.10;8.40;;;;;;;17.20;78.00;98713.73;272887;1273;22406;-85
2023/03/22 12:15:13;;;;;;;15.00;7.90;;;;;;;17.11;78.11;98712.19;272924;1272;22394;-84
2023/03/22 12:21:15;;;;;;;10.80;8.00;;;;;;;17.54;76.90;98709.20;272754;1273;22552;-83
2023/03/22 12:27:24;;;;;;;11.00;7.50;;;;;;;17.88;76.06;98706.39;272202;1273;22419;-86
2023/03/22 12:33:30;;;;;;;15.20;9.20;;;;;;;18.19;74.21;98694.58;272715;1266;24048;-85
2023/03/22 12:39:45;;;;;;;14.20;7.60;;;;;;;17.81;71.85;98689.46;271733;1272;25315;-85
2023/03/22 12:46:33;;;;;;;13.30;8.00;;;;;;;17.57;72.56;98679.32;272299;1270;22280;-85
2023/03/22 12:53:03;;;;;;;10.50;8.50;;;;;;;17.58;72.05;98679.46;272829;1274;22336;-85
2023/03/22 12:59:12;;;;;;;12.50;8.10;;;;;;;17.81;71.41;98679.10;272837;1270;22277;-84
2023/03/22 13:05:17;;;;;;;8.90;5.30;;;;;;;18.12;71.19;98670.76;272635;1272;23656;-85
2023/03/22 13:11:23;;;;;;;8.30;5.30;;;;;;;18.35;69.74;98673.69;271297;1270;24568;-84
2023/03/22 13:17:24;;;;;;;7.30;5.70;;;;;;;18.54;68.76;98669.74;269599;1270;22553;-83
2023/03/22 13:23:26;;;;;;;6.90;5.30;;;;;;;18.48;66.45;98661.88;270754;1270;22403;-86
2023/03/22 13:29:31;;;;;;;5.80;4.60;;;;;;;18.51;65.76;98651.84;273019;1271;22497;-85
2023/03/22 13:35:39;;;;;;;7.30;4.40;;;;;;;18.31;65.46;98643.37;270370;1274;22564;-85
2023/03/22 13:42:24;;;;;;;5.00;3.80;;;;;;;17.99;64.75;98641.88;272641;1273;22235;-84
2023/03/22 13:48:52;;;;;;;7.60;4.30;;;;;;;17.87;64.58;98632.12;270959;1272;22522;-87
2023/03/22 13:54:57;;;;;;;5.60;3.40;;;;;;;17.78;63.86;98625.52;271090;1272;22430;-86
2023/03/22 14:00:59;;;;;;;6.30;3.20;;;;;;;17.92;62.45;98614.05;272436;1273;22533;-86
2023/03/22 14:07:20;;;;;;;5.10;2.80;;;;;;;17.99;60.56;98607.55;271844;1271;22797;-85
2023/03/22 14:13:55;;;;;;;7.40;3.30;;;;;;;18.03;60.81;98599.39;271035;1263;22294;-85
2023/03/22 14:20:03;;;;;;;4.00;2.90;;;;;;;18.24;61.28;98594.71;272861;1273;22482;-85
2023/03/22 14:26:54;;;;;;;5.80;3.40;;;;;;;18.34;60.22;98589.62;272729;1273;23083;-86
2023/03/22 14:33:42;;;;;;;5.50;2.80;;;;;;;18.47;59.37;98588.41;271756;1273;22333;-85
2023/03/22 14:40:46;;;;;;;4.70;2.70;;;;;;;18.56;58.78;98588.89;272544;1274;23743;-86
2023/03/22 14:46:48;;;;;;;5.00;3.10;;;;;;;18.49;58.46;98587.89;271988;1274;22249;-85
2023/03/22 14:52:50;;;;;;;3.30;2.60;;;;;;;18.25;58.34;98582.73;270322;1274;22241;-86
2023/03/22 14:59:13;;;;;;;5.50;3.30;;;;;;;17.98;58.41;98581.14;270504;1274;24205;-86
2023/03/22 15:06:01;;;;;;;5.40;3.70;;;;;;;17.74;58.51;98579.84;270419;1271;22583;-85
2023/03/22 15:12:21;;;;;;;7.50;3.10;;;;;;;17.47;58.72;98579.05;272747;1275;22379;-85
2023/03/22 15:19:07;;;;;;;6.90;4.20;;;;;;;17.29;58.74;98576.27;271723;1272;22752;-85
2023/03/22 15:25:12;;;;;;;7.50;3.90;;;;;;;17.13;58.53;98576.62;270635;1270;22444;-86
2023/03/22 15:31:29;;;;;;;5.80;3.80;;;;;;;17.04;58.75;98573.59;269858;1270;22526;-84
2023/03/22 15:38:02;;;;;;;8.50;3.90;;;;;;;16.89;59.40;98564.50;269523;1273;22566;-85
2023/03/22 15:51:50;;;;;;;10.30;6.00;;;;;;;16.39;59.73;98555.23;271454;1271;22281;-86
2023/03/22 15:57:58;;;;;;;7.10;5.30;;;;;;;16.18;59.69;98555.84;272867;1271;22266;-85
2023/03/22 16:04:10;;;;;;;8.10;4.30;;;;;;;16.01;59.77;98550.08;270599;1271;22672;-85
2023/03/22 16:17:52;;;;;;;8.80;4.20;;;;;;;15.54;60.58;98556.70;270265;1271;22562;-85
2023/03/22 16:23:54;;;;;;;5.90;3.60;;;;;;;15.35;60.92;98560.68;270859;1271;22949;-85
2023/03/22 16:30:01;;;;;;;10.80;3.90;;;;;;;15.16;61.13;98558.83;269911;1271;22552;-84
2023/03/22 16:36:28;;;;;;;12.10;5.60;;;;;;;14.99;61.30;98560.07;270510;1273;23312;-86
2023/03/22 16:43:17;;;;;;;31.50;13.80;;;;;;;14.80;61.65;98562.05;272058;1271;22883;-86
2023/03/22 16:50:12;;;;;;;28.00;9.60;;;;;;;14.50;62.49;98563.67;269670;1272;133150;-85
2023/03/22 16:56:41;;;;;;;19.70;6.80;;;;;;;14.15;63.68;98567.33;270782;1271;22199;-86
2023/03/22 17:02:43;;;;;;;11.30;5.60;;;;;;;13.80;64.69;98570.33;272901;1271;22378;-85
2023/03/22 17:08:45;;;;;;;12.70;6.20;;;;;;;13.43;65.45;98575.48;272900;1272;22542;-85
2023/03/22 17:14:48;;;;;;;14.20;6.50;;;;;;;13.12;66.45;98584.55;272784;1271;22430;-87
2023/03/22 17:21:41;;;;;;;21.30;7.70;;;;;;;12.86;67.41;98586.63;271408;1272;22734;-86
2023/03/22 17:27:43;;;;;;;15.80;6.80;;;;;;;12.51;68.20;98584.72;272951;1261;23477;-86
2023/03/22 17:34:03;;;;;;;17.50;7.30;;;;;;;12.17;68.67;98578.52;272276;1271;22267;-83
2023/03/22 17:40:08;;;;;;;17.90;8.40;;;;;;;11.92;69.76;98576.36;272894;1271;23277;-85
2023/03/22 17:47:02;;;;;;;19.90;9.00;;;;;;;11.67;70.47;98575.74;273172;1271;22225;-86
2023/03/22 17:53:06;;;;;;;21.10;11.20;;;;;;;11.41;71.43;98581.19;272599;1270;22690;-86
2023/03/22 17:59:34;;;;;;;23.10;12.80;;;;;;;11.32;72.18;98585.57;272501;1275;22265;-85
2023/03/22 18:05:36;;;;;;;;;;;;;;;11.22;72.51;98594.86;272981;1271;22477;-86
2023/03/22 18:11:37;;;;;;;21.30;13.20;;;;;;;11.16;72.86;98595.79;271130;1272;22570;-85
2023/03/22 18:18:32;;;;;;;22.80;12.80;;;;;;;11.12;73.08;98599.38;271129;1271;23484;-85
2023/03/22 18:24:35;;;;;;;19.20;11.30;;;;;;;11.04;73.43;98597.86;273107;1270;25038;-85
2023/03/22 18:30:37;;;;;;;18.30;11.20;;;;;;;11.00;73.62;98598.55;271772;1271;22427;-85
2023/03/22 18:37:28;;;;;;;23.30;13.40;;;;;;;11.01;73.67;98595.43;271341;1272;22660;-85
2023/03/22 18:43:30;;;;;;;30.50;17.30;;;;;;;11.03;73.43;98592.15;270782;1271;22408;-85
2023/03/22 18:49:32;;;;;;;32.20;18.10;;;;;;;11.07;73.44;98594.05;272948;1271;22396;-85
2023/03/22 18:56:25;;;;;;;30.60;16.80;;;;;;;11.09;73.54;98597.58;272298;1271;22550;-85
2023/03/22 19:03:14;;;;;;;32.00;18.70;;;;;;;10.97;73.81;98600.51;271621;1271;23155;-86
2023/03/22 19:09:35;;;;;;;31.40;18.60;;;;;;;10.76;74.24;98599.27;269515;1261;22812;-85
2023/03/22 19:16:48;;;;;;;34.30;19.10;;;;;;;10.50;75.03;98599.77;269366;1271;22566;-84
2023/03/22 19:22:50;;;;;;;47.40;25.60;;;;;;;10.28;75.96;98603.63;270194;1272;22307;-85
2023/03/22 19:28:56;;;;;;;40.40;21.10;;;;;;;10.08;76.88;98607.08;269853;1271;22670;-84
2023/03/22 19:35:34;;;;;;;65.00;29.60;;;;;;;9.88;77.78;98606.38;272533;1271;22296;-85
2023/03/22 19:41:58;;;;;;;;;;;;;;;9.71;78.48;98608.03;270823;1272;23571;-84
2023/03/22 19:48:00;;;;;;;59.10;32.30;;;;;;;9.58;79.15;98612.69;271596;1271;22570;-84
2023/03/22 19:54:03;;;;;;;57.90;30.70;;;;;;;9.50;79.46;98609.88;271983;1271;22513;-85
2023/03/22 20:00:55;;;;;;;50.80;28.00;;;;;;;9.47;79.65;98608.29;270865;1271;22628;-84
2023/03/22 20:07:23;;;;;;;41.50;23.40;;;;;;;9.42;79.73;98611.15;273071;1273;22407;-85
2023/03/22 20:14:02;;;;;;;37.30;22.00;;;;;;;9.38;80.04;98612.20;272972;1271;22420;-84
2023/03/22 20:20:39;;;;;;;37.80;20.30;;;;;;;9.37;80.38;98610.85;272996;1271;22208;-85
2023/03/22 20:27:20;;;;;;;35.30;19.60;;;;;;;9.36;80.39;98606.24;273027;1271;22398;-84
2023/03/22 20:33:28;;;;;;;31.30;19.00;;;;;;;9.38;80.84;98608.05;273104;1271;22433;-85
2023/03/22 20:39:51;;;;;;;37.40;18.80;;;;;;;9.46;80.93;98602.97;273144;1271;22435;-84
2023/03/22 20:45:53;;;;;;;23.60;14.00;;;;;;;9.56;80.82;98603.78;273187;1272;22372;-85
2023/03/22 20:51:54;;;;;;;26.40;13.90;;;;;;;9.69;80.66;98600.29;273166;1271;22286;-85
2023/03/22 20:57:56;;;;;;;22.30;11.90;;;;;;;9.79;80.57;98603.10;272904;1271;22946;-84
2023/03/22 21:04:22;;;;;;;21.80;10.90;;;;;;;9.90;80.52;98598.59;273019;1271;22661;-85
2023/03/22 21:10:23;;;;;;;17.40;9.90;;;;;;;10.06;80.34;98596.21;272952;1270;22455;-83
2023/03/22 21:16:25;;;;;;;18.80;10.40;;;;;;;10.24;80.07;98594.86;271701;1271;22438;-84
2023/03/22 21:22:27;;;;;;;19.10;10.70;;;;;;;10.40;79.66;98595.35;270770;1267;22614;-85
2023/03/22 21:29:19;;;;;;;17.90;10.80;;;;;;;10.42;79.45;98595.43;271011;1271;22565;-84
2023/03/22 21:35:56;;;;;;;17.30;10.20;;;;;;;10.33;79.38;98601.48;270352;1272;24276;-85
2023/03/22 21:42:00;;;;;;;16.20;9.90;;;;;;;10.20;79.26;98603.19;270338;1271;22614;-84
2023/03/22 21:48:05;;;;;;;20.70;9.70;;;;;;;10.10;79.30;98601.24;272109;1272;22533;-84
2023/03/22 21:55:02;;;;;;;15.10;9.60;;;;;;;10.03;79.28;98597.36;270188;1272;22570;-84
2023/03/22 22:01:29;;;;;;;14.10;8.60;;;;;;;10.00;79.35;98601.00;269279;1272;23103;-84
2023/03/22 22:07:32;;;;;;;14.90;8.80;;;;;;;9.88;79.38;98599.20;269368;1271;22435;-85
2023/03/22 22:13:54;;;;;;;15.00;8.00;;;;;;;9.74;79.36;98600.33;269667;1268;22610;-84
2023/03/22 22:20:00;;;;;;;12.80;8.40;;;;;;;9.64;79.61;98606.25;269843;1272;23286;-84
2023/03/22 22:26:13;;;;;;;12.60;8.00;;;;;;;9.52;79.76;98606.08;271504;1271;22430;-84
2023/03/22 22:32:15;;;;;;;19.00;8.70;;;;;;;9.39;79.87;98608.30;272018;1272;23695;-84
2023/03/22 22:38:18;;;;;;;16.70;8.20;;;;;;;9.24;80.19;98606.05;269909;1271;22647;-85
2023/03/22 22:44:41;;;;;;;14.80;7.90;;;;;;;9.07;80.32;98601.89;270347;1268;22207;-84
2023/03/22 22:51:04;;;;;;;14.30;9.20;;;;;;;8.81;80.50;98597.37;271958;1272;22199;-85
2023/03/22 22:57:37;;;;;;;17.60;9.50;;;;;;;8.55;80.83;98597.20;272675;1271;22504;-84
2023/03/22 23:03:41;;;;;;;15.70;8.40;;;;;;;8.27;81.25;98596.45;271617;1271;22550;-84
2023/03/22 23:10:04;;;;;;;17.40;10.50;;;;;;;8.02;81.89;98590.92;272953;1271;22376;-84
2023/03/22 23:16:11;;;;;;;17.80;9.00;;;;;;;7.79;82.46;98588.72;273177;1273;22629;-84
2023/03/22 23:22:31;;;;;;;17.70;10.20;;;;;;;7.61;83.01;98591.22;273252;1272;23681;-84
2023/03/22 23:28:35;;;;;;;17.50;10.10;;;;;;;7.42;83.44;98585.77;273134;1261;22415;-85
2023/03/22 23:35:02;;;;;;;16.50;10.70;;;;;;;7.27;83.97;98587.45;273029;1271;22389;-85
2023/03/22 23:41:51;;;;;;;22.30;11.60;;;;;;;7.10;84.52;98588.79;272632;1271;22471;-84
2023/03/22 23:47:53;;;;;;;19.50;11.00;;;;;;;6.93;85.11;98587.77;270542;1272;23320;-85
2023/03/22 23:54:35;;;;;;;18.00;12.00;;;;;;;6.80;85.40;98587.59;269490;1271;23095;-84
